Urb Calvario, Puerto Rico
Current Conditions -  °F | °C
As of 12:07 AM on Friday 31 Oct 2014 (Local Time) from TJNR Reporting Station
Moderate Rain Moderate Rain  
Wind Chill: 79°   Ceiling: 4500
Heat Index: 83°   Visibility: 1.2mi
Dew Point: 76°   Wind: 5mph
Humidity: 90%   Direction: 160°SSE
Pressure: 29.87"   Gusts: NA
Location:  18.0547°N, 65.8738°W
Report Text: TJNR 310407Z AUTO 16004KT 1 1/4SM RA BR SCT025 SCT038 BKN045 26/24 A2987 RMK AO2 RAB0359 P0012 T02610244 $
Loading
Personal Weather Stations






























Interactive Weather Map
Tropical Storm Tracking
New forecast layout! Learn more

10-Day Weather Forecast

Advertisements
Track Severe Weather on mobile